»·PEaware :: N317LP KSBD-KEMT

N317LP :: KSBD-KEMT

FLIGHT INFORMATION

Flight Status: Arrived
Operator: Privately registered:
United States
More flights under this callsign
Pilot: Daniel L. (19093)
Aircraft: CESSNA 152 AEROBAT
(C152)
More flights by this aircraft type
Origin: KSBD San Bernardino Intl
United States
Destination: KEMT El Monte
United States
More flights between these airports :: More routes between these airports
Route:
File this flight plan on PilotEdge
Remarks:
Altitude:
(Current/Filed)
35ft
Speed:
(Current/Filed)
100kts
Departed: 16-Sep-18 08:27 AM
Arrived: 16-Sep-18 08:52 AM
Distance/Time
Traveled:
40nm/0:24
Distance/Time
To Go:
Arrived

Flight Plot

Page will automatically refresh every two minutes.


Map Options




Map Legend


Flown Route
Filed Route
Departure Airport
Arrival Airport
Navaid (VOR, NDB)
Fix

Horizontal Profiles

Position Reports

Time Latitude Longitude Heading Altitude Ground
Speed
16-Sep-18 08:13 34.101692 -117.225539 268 1160ft 0kts
16-Sep-18 08:14 34.101692 -117.225540 268 1160ft 0kts
16-Sep-18 08:15 34.101692 -117.225541 268 1160ft 0kts
16-Sep-18 08:16 34.101691 -117.225542 268 1160ft 0kts
16-Sep-18 08:17 34.101691 -117.225542 268 1160ft 0kts
16-Sep-18 08:18 34.101691 -117.225543 268 1160ft 0kts
16-Sep-18 08:19 34.101691 -117.225544 268 1160ft 0kts
16-Sep-18 08:20 34.101691 -117.225545 268 1160ft 0kts
16-Sep-18 08:21 34.101691 -117.225545 268 1160ft 0kts
16-Sep-18 08:22 34.101453 -117.225272 156 1160ft 12kts
16-Sep-18 08:23 34.100365 -117.225512 239 1160ft 7kts
16-Sep-18 08:24 34.098919 -117.228072 247 1160ft 20kts
16-Sep-18 08:25 34.096453 -117.236453 252 1160ft 30kts
16-Sep-18 08:26 34.094037 -117.244769 249 1160ft 18kts
16-Sep-18 08:27 34.092699 -117.249350 250 1160ft 13kts
16-Sep-18 08:28 34.091750 -117.250386 160 1160ft 0kts
16-Sep-18 08:29 34.091549 -117.247812 72 1160ft 48kts
16-Sep-18 08:30 34.100600 -117.223064 34 1799ft 80kts
16-Sep-18 08:31 34.117221 -117.241040 297 2205ft 103kts
16-Sep-18 08:32 34.127442 -117.274084 279 2454ft 104kts
16-Sep-18 08:33 34.125535 -117.308759 250 2643ft 108kts
16-Sep-18 08:34 34.120574 -117.346241 266 2532ft 115kts
16-Sep-18 08:35 34.121115 -117.385887 270 2354ft 118kts
16-Sep-18 08:36 34.116839 -117.423998 258 2427ft 112kts
16-Sep-18 08:37 34.111640 -117.461332 261 2484ft 113kts
16-Sep-18 08:38 34.109412 -117.499453 259 2510ft 114kts
16-Sep-18 08:39 34.102203 -117.536822 255 2495ft 112kts
16-Sep-18 08:40 34.097085 -117.573961 263 2463ft 112kts
16-Sep-18 08:41 34.096021 -117.611506 265 2445ft 111kts
16-Sep-18 08:42 34.093887 -117.648733 257 2451ft 109kts
16-Sep-18 08:43 34.087863 -117.684988 261 2413ft 115kts
16-Sep-18 08:44 34.086554 -117.721924 262 2406ft 110kts
16-Sep-18 08:45 34.082691 -117.757361 256 2448ft 105kts
16-Sep-18 08:46 34.082784 -117.792830 265 2502ft 105kts
16-Sep-18 08:47 34.081175 -117.828317 267 2549ft 106kts
16-Sep-18 08:48 34.081217 -117.864333 268 2584ft 107kts
16-Sep-18 08:49 34.080508 -117.900514 265 2560ft 106kts
16-Sep-18 08:50 34.080556 -117.935296 274 2264ft 101kts
16-Sep-18 08:51 34.089277 -117.966610 289 2164ft 95kts
16-Sep-18 08:52 34.095599 -117.997041 276 2092ft 96kts
16-Sep-18 08:53 34.101792 -118.022143 253 1246ft 71kts
16-Sep-18 08:54 34.088252 -118.033524 205 299ft 37kts
16-Sep-18 08:55 34.082758 -118.036681 206 299ft 22kts
16-Sep-18 08:56 34.080975 -118.037146 96 299ft 0kts
16-Sep-18 08:57 34.082565 -118.035525 96 299ft 23kts
16-Sep-18 08:58 34.082408 -118.035006 111 299ft 0kts
16-Sep-18 08:59 34.082408 -118.035006 111 299ft 0kts
16-Sep-18 09:00 34.082408 -118.035006 111 299ft 0kts
16-Sep-18 09:01 34.082408 -118.035006 111 299ft 0kts
16-Sep-18 09:02 34.082408 -118.035006 111 299ft 0kts
16-Sep-18 09:03 34.082408 -118.035006 111 299ft 0kts
16-Sep-18 09:04 34.082408 -118.035006 111 299ft 0kts
16-Sep-18 09:05 34.082408 -118.035006 111 299ft 0kts
16-Sep-18 09:06 34.082408 -118.035006 111 299ft 0kts
16-Sep-18 09:07 34.082408 -118.035006 111 299ft 0kts
16-Sep-18 09:08 34.082408 -118.035006 111 299ft 0kts

Navigation Log

Ident Type
Flight plan parsing failed, navigation log unavailable